createdAt,value
2022-09-29T00:00:36.702Z,38.13
2022-09-29T00:03:03.870Z,33.83
2022-09-29T00:05:30.586Z,32.35
2022-09-29T00:07:57.188Z,30.48
2022-09-29T00:10:23.834Z,32.78
2022-09-29T00:12:50.287Z,37.40
2022-09-29T00:15:16.873Z,38.65
2022-09-29T00:17:58.024Z,38.97
2022-09-29T00:20:29.457Z,35.63
2022-09-29T00:22:55.871Z,37.28
2022-09-29T00:25:22.344Z,35.85
2022-09-29T00:27:48.699Z,30.83
2022-09-29T00:30:15.006Z,33.20
2022-09-29T00:32:41.479Z,32.35
2022-09-29T00:35:10.224Z,31.58
2022-09-29T00:37:37.135Z,30.45
2022-09-29T00:40:04.833Z,30.65
2022-09-29T00:42:32.541Z,29.58
2022-09-29T00:45:23.021Z,33.63
2022-09-29T00:48:13.299Z,31.75
2022-09-29T00:50:46.598Z,32.17
2022-09-29T00:53:20.591Z,31.60
2022-09-29T00:55:53.757Z,31.58
2022-09-29T00:58:37.021Z,32.10
2022-09-29T01:01:05.273Z,34.00
2022-09-29T01:03:35.793Z,33.70
2022-09-29T01:06:13.805Z,34.75
2022-09-29T01:08:45.898Z,35.97
2022-09-29T01:11:13.353Z,33.50
2022-09-29T01:13:41.605Z,32.33
2022-09-29T01:16:09.402Z,35.95
2022-09-29T01:18:36.236Z,37.95
2022-09-29T01:21:55.057Z,37.30
2022-09-29T01:25:01.986Z,39.08
2022-09-29T01:27:45.558Z,37.67
2022-09-29T01:30:37.809Z,36.78
2022-09-29T01:33:22.524Z,37.10
2022-09-29T01:36:03.287Z,39.38
2022-09-29T01:38:46.734Z,40.92
2022-09-29T01:41:49.659Z,41.28
2022-09-29T01:44:36.024Z,39.92
2022-09-29T01:47:11.075Z,37.45
2022-09-29T01:49:42.256Z,40.17
2022-09-29T01:52:19.159Z,38.67
2022-09-29T01:55:08.245Z,40.90
2022-09-29T01:57:46.309Z,38.75
2022-09-29T02:00:16.103Z,42.65
2022-09-29T02:02:50.705Z,39.28
2022-09-29T02:05:32.362Z,38.45
2022-09-29T02:08:07.354Z,37.80
2022-09-29T02:10:40.398Z,39.28
2022-09-29T02:13:10.451Z,36.10
2022-09-29T02:15:42.958Z,33.45
2022-09-29T02:18:15.812Z,35.20
2022-09-29T02:20:42.305Z,36.25
2022-09-29T02:23:08.698Z,34.78
2022-09-29T02:25:38.537Z,35.53
2022-09-29T02:28:06.679Z,36.25
2022-09-29T02:30:34.754Z,38.92
2022-09-29T02:33:01.270Z,38.38
2022-09-29T02:35:57.662Z,37.80
2022-09-29T02:38:47.031Z,37.40
2022-09-29T02:41:28.628Z,39.90
2022-09-29T02:44:22.748Z,35.53
2022-09-29T02:47:43.176Z,31.90
2022-09-29T02:50:25.046Z,34.53
2022-09-29T02:53:21.304Z,34.35
2022-09-29T02:56:03.688Z,35.70
2022-09-29T02:58:46.215Z,33.70
2022-09-29T03:01:16.381Z,33.63
2022-09-29T03:03:43.625Z,29.00
2022-09-29T03:06:11.169Z,29.30
2022-09-29T03:08:37.770Z,28.27
2022-09-29T03:11:04.088Z,31.65
2022-09-29T03:13:30.533Z,31.58
2022-09-29T03:15:56.885Z,32.92
2022-09-29T03:18:24.376Z,29.85
2022-09-29T03:20:50.737Z,27.38
2022-09-29T03:23:17.223Z,26.15
2022-09-29T03:25:43.522Z,26.02
2022-09-29T03:28:09.835Z,25.40
2022-09-29T03:30:36.137Z,24.10
2022-09-29T03:33:02.483Z,22.58
2022-09-29T03:35:28.820Z,25.27
2022-09-29T03:37:59.498Z,28.42
2022-09-29T03:40:27.549Z,29.85
2022-09-29T03:42:53.945Z,27.30
2022-09-29T03:45:20.291Z,26.05
2022-09-29T03:47:46.641Z,27.05
2022-09-29T03:50:13.298Z,21.58
2022-09-29T03:52:39.730Z,21.70
2022-09-29T03:55:06.583Z,22.55
2022-09-29T03:57:32.889Z,22.92
2022-09-29T03:59:59.182Z,23.20
2022-09-29T04:02:25.583Z,24.00
2022-09-29T04:04:51.988Z,28.23
2022-09-29T04:07:18.339Z,29.17
2022-09-29T04:09:44.636Z,25.33
2022-09-29T04:12:10.978Z,23.05
2022-09-29T04:14:37.292Z,20.40
2022-09-29T04:17:03.653Z,20.45
2022-09-29T04:19:29.964Z,20.42
2022-09-29T04:21:56.261Z,20.55
2022-09-29T04:24:22.581Z,19.08
2022-09-29T04:26:48.883Z,19.65
2022-09-29T04:29:15.433Z,19.75
2022-09-29T04:31:41.891Z,22.50
2022-09-29T04:34:08.239Z,19.92
2022-09-29T04:36:34.555Z,18.77
2022-09-29T04:39:01.015Z,17.33
2022-09-29T04:41:27.317Z,18.85
2022-09-29T04:43:53.621Z,19.73
2022-09-29T04:46:20.007Z,18.15
2022-09-29T04:48:46.417Z,19.02
2022-09-29T04:51:12.721Z,17.90
2022-09-29T04:53:39.039Z,18.58
2022-09-29T04:56:07.199Z,17.60
2022-09-29T04:58:33.952Z,18.05
2022-09-29T05:01:08.841Z,18.10
2022-09-29T05:03:35.205Z,16.30
2022-09-29T05:06:01.726Z,16.85
2022-09-29T05:08:28.042Z,18.33
2022-09-29T05:10:54.353Z,18.00
2022-09-29T05:13:20.722Z,18.15
2022-09-29T05:15:47.046Z,18.38
2022-09-29T05:18:13.353Z,17.63
2022-09-29T05:20:45.535Z,17.77
2022-09-29T05:23:21.400Z,17.92
2022-09-29T05:25:47.939Z,17.20
2022-09-29T05:28:15.166Z,16.63
2022-09-29T05:30:42.233Z,18.45
2022-09-29T05:33:08.589Z,18.58
2022-09-29T05:35:35.111Z,18.95
2022-09-29T05:38:01.448Z,19.23
2022-09-29T05:40:27.801Z,21.45
2022-09-29T05:42:54.232Z,23.20
2022-09-29T05:45:20.597Z,21.45
2022-09-29T05:47:46.926Z,20.88
2022-09-29T05:50:14.031Z,21.27
2022-09-29T05:52:40.493Z,21.70
2022-09-29T05:55:10.921Z,21.98
2022-09-29T05:57:37.302Z,21.73
2022-09-29T06:00:04.525Z,20.58
2022-09-29T06:02:30.871Z,20.70
2022-09-29T06:04:57.191Z,19.92
2022-09-29T06:07:23.530Z,21.48
2022-09-29T06:09:50.084Z,20.60
2022-09-29T06:12:19.919Z,21.92
2022-09-29T06:14:48.041Z,24.08
2022-09-29T06:17:14.355Z,25.02
2022-09-29T06:19:44.523Z,25.25
2022-09-29T06:22:11.185Z,26.75
2022-09-29T06:24:37.524Z,28.40
2022-09-29T06:27:03.858Z,26.55
2022-09-29T06:29:30.212Z,29.95
2022-09-29T06:31:56.642Z,28.48
2022-09-29T06:34:22.993Z,30.35
2022-09-29T06:37:08.025Z,29.05
2022-09-29T06:39:34.323Z,27.65
2022-09-29T06:42:01.064Z,29.27
2022-09-29T06:44:29.858Z,33.67
2022-09-29T06:46:57.081Z,34.97
2022-09-29T06:49:24.383Z,43.35
2022-09-29T06:51:51.147Z,46.03
2022-09-29T06:54:20.770Z,47.45
2022-09-29T06:56:51.028Z,52.10
2022-09-29T06:59:17.748Z,54.28
2022-09-29T07:01:44.369Z,56.70
2022-09-29T07:04:10.772Z,53.85
2022-09-29T07:06:37.105Z,54.55
2022-09-29T07:09:03.763Z,56.72
2022-09-29T07:11:30.104Z,56.75
2022-09-29T07:13:56.461Z,61.80
2022-09-29T07:16:26.222Z,59.67
2022-09-29T07:18:53.008Z,58.22
2022-09-29T07:21:21.973Z,60.25
2022-09-29T07:23:48.674Z,62.78
2022-09-29T07:26:18.861Z,58.78
2022-09-29T07:28:46.761Z,57.90
2022-09-29T07:31:16.452Z,55.72
2022-09-29T07:33:44.628Z,55.55
2022-09-29T07:36:11.734Z,60.78
2022-09-29T07:38:38.083Z,55.25
2022-09-29T07:41:07.430Z,57.20
2022-09-29T07:43:34.478Z,56.55
2022-09-29T07:46:01.635Z,60.15
2022-09-29T07:48:31.967Z,55.83
2022-09-29T07:51:07.414Z,55.72
2022-09-29T07:53:35.004Z,57.15
2022-09-29T07:56:15.884Z,56.28
2022-09-29T07:58:42.293Z,55.22
2022-09-29T08:01:12.706Z,54.85
2022-09-29T08:03:41.055Z,55.65
2022-09-29T08:06:08.093Z,55.25
2022-09-29T08:08:39.275Z,55.63
2022-09-29T08:11:12.477Z,57.35
2022-09-29T08:13:42.871Z,55.03
2022-09-29T08:16:12.658Z,54.97
2022-09-29T08:18:39.068Z,52.70
2022-09-29T08:21:06.543Z,52.50
2022-09-29T08:23:37.690Z,51.40
2022-09-29T08:26:06.676Z,49.20
2022-09-29T08:28:34.670Z,46.03
2022-09-29T08:31:09.685Z,49.53
2022-09-29T08:33:36.681Z,47.35
2022-09-29T08:36:06.166Z,47.65
2022-09-29T08:38:32.823Z,47.15
2022-09-29T08:41:06.057Z,44.67
2022-09-29T08:43:54.210Z,45.60
2022-09-29T08:46:36.538Z,44.08
2022-09-29T08:49:10.291Z,45.35
2022-09-29T08:51:43.341Z,47.10
2022-09-29T08:54:38.754Z,45.33
2022-09-29T08:57:07.506Z,45.78
2022-09-29T08:59:33.847Z,49.38
2022-09-29T09:02:26.959Z,46.67
2022-09-29T09:05:17.083Z,46.08
2022-09-29T09:07:53.427Z,46.97
2022-09-29T09:10:32.250Z,47.20
2022-09-29T09:13:13.701Z,48.67
2022-09-29T09:15:54.151Z,48.20
2022-09-29T09:18:29.742Z,46.53
2022-09-29T09:21:13.985Z,40.72
2022-09-29T09:23:56.837Z,37.33
2022-09-29T09:26:41.367Z,40.92
2022-09-29T09:29:19.979Z,37.63
2022-09-29T09:31:58.020Z,39.17
2022-09-29T09:34:46.225Z,32.10
2022-09-29T09:37:28.386Z,32.00
2022-09-29T09:40:03.909Z,30.08
2022-09-29T09:42:36.785Z,28.52
2022-09-29T09:45:41.749Z,28.25
2022-09-29T09:48:13.765Z,24.42
2022-09-29T09:50:42.951Z,24.60
2022-09-29T09:53:19.500Z,27.58
2022-09-29T09:55:53.992Z,27.27
2022-09-29T09:58:34.806Z,27.45
2022-09-29T10:01:07.287Z,30.05
2022-09-29T10:03:34.488Z,23.38
2022-09-29T10:06:00.991Z,28.20
2022-09-29T10:08:38.300Z,29.58
2022-09-29T10:11:16.016Z,24.02
2022-09-29T10:13:42.538Z,19.77
2022-09-29T10:16:17.339Z,22.15
2022-09-29T10:18:47.015Z,22.35
2022-09-29T10:21:25.087Z,19.63
2022-09-29T10:23:54.365Z,21.13
2022-09-29T10:26:36.057Z,20.95
2022-09-29T10:29:17.326Z,19.63
2022-09-29T10:31:43.701Z,21.75
2022-09-29T10:34:09.943Z,23.08
2022-09-29T10:36:52.093Z,25.25
2022-09-29T10:39:32.946Z,18.00
2022-09-29T10:41:59.695Z,16.55
2022-09-29T10:44:32.337Z,12.38
2022-09-29T10:46:59.288Z,13.20
2022-09-29T10:49:29.075Z,15.13
2022-09-29T10:52:01.919Z,15.90
2022-09-29T10:54:33.354Z,14.20
2022-09-29T10:57:10.752Z,13.23
2022-09-29T10:59:46.605Z,9.93
2022-09-29T11:02:22.443Z,10.70
2022-09-29T11:04:49.437Z,9.88
2022-09-29T11:07:16.138Z,9.25
2022-09-29T11:09:45.053Z,8.05
2022-09-29T11:12:27.230Z,7.97
2022-09-29T11:14:54.139Z,9.38
2022-09-29T11:17:24.306Z,8.27
2022-09-29T11:19:56.847Z,8.07
2022-09-29T11:22:49.136Z,9.25
2022-09-29T11:25:22.537Z,7.03
2022-09-29T11:28:02.218Z,7.13
2022-09-29T11:30:42.876Z,7.68
2022-09-29T11:33:12.329Z,6.90
2022-09-29T11:36:08.091Z,8.63
2022-09-29T11:39:00.770Z,11.27
2022-09-29T11:41:33.143Z,7.07
2022-09-29T11:44:25.929Z,6.57
2022-09-29T11:46:58.036Z,6.78
2022-09-29T11:49:35.083Z,5.13
2022-09-29T11:52:20.295Z,6.45
2022-09-29T11:54:52.655Z,7.15
2022-09-29T11:57:49.138Z,6.30
2022-09-29T12:00:18.864Z,6.85
2022-09-29T12:03:10.170Z,7.90
2022-09-29T12:06:01.947Z,7.75
2022-09-29T12:08:45.956Z,6.30
2022-09-29T12:11:50.756Z,7.35
2022-09-29T12:14:31.212Z,6.95
2022-09-29T12:17:02.227Z,5.50
2022-09-29T12:19:33.062Z,6.75
2022-09-29T12:22:03.010Z,6.65
2022-09-29T12:24:37.720Z,6.40
2022-09-29T12:27:16.466Z,5.47
2022-09-29T12:30:16.214Z,5.68
2022-09-29T12:32:54.369Z,5.85
2022-09-29T12:35:34.568Z,7.22
2022-09-29T12:38:10.708Z,6.07
2022-09-29T12:40:46.171Z,6.38
2022-09-29T12:43:37.349Z,6.80
2022-09-29T12:46:10.179Z,5.32
2022-09-29T12:48:51.306Z,6.25
2022-09-29T12:51:22.919Z,4.68
2022-09-29T12:54:22.004Z,5.93
2022-09-29T12:56:51.506Z,6.07
2022-09-29T12:59:30.007Z,7.63
2022-09-29T13:01:57.973Z,6.45
2022-09-29T13:05:06.437Z,6.85
2022-09-29T13:07:39.723Z,6.03
2022-09-29T13:10:22.045Z,6.05
2022-09-29T13:12:52.740Z,6.63
2022-09-29T13:15:56.431Z,6.00
2022-09-29T13:18:53.969Z,5.57
2022-09-29T13:22:13.697Z,6.40
2022-09-29T13:24:55.707Z,7.57
2022-09-29T13:27:44.419Z,6.68
2022-09-29T13:30:17.019Z,7.97
2022-09-29T13:32:47.802Z,8.02
2022-09-29T13:35:17.400Z,6.78
2022-09-29T13:38:05.605Z,6.93
2022-09-29T13:40:32.986Z,5.68
2022-09-29T13:43:05.394Z,6.80
2022-09-29T13:45:34.516Z,6.35
2022-09-29T13:48:22.600Z,6.03
2022-09-29T13:50:50.099Z,5.38
2022-09-29T13:53:19.184Z,6.72
2022-09-29T13:56:08.753Z,6.70
2022-09-29T13:58:44.215Z,7.60
2022-09-29T14:01:12.737Z,5.63
2022-09-29T14:03:41.579Z,4.47
2022-09-29T14:06:40.145Z,4.68
2022-09-29T14:09:16.253Z,6.13
2022-09-29T14:11:48.518Z,6.82
2022-09-29T14:14:21.500Z,6.18
2022-09-29T14:17:05.369Z,5.72
2022-09-29T14:19:59.963Z,6.65
2022-09-29T14:22:26.275Z,6.53
2022-09-29T14:24:55.538Z,6.38
2022-09-29T14:27:32.024Z,6.85
2022-09-29T14:30:13.632Z,6.65
2022-09-29T14:32:55.963Z,11.02
2022-09-29T14:35:30.718Z,11.13
2022-09-29T14:38:04.992Z,9.20
2022-09-29T14:40:32.676Z,7.55
2022-09-29T14:43:02.908Z,7.28
2022-09-29T14:46:08.159Z,8.90
2022-09-29T14:49:04.851Z,7.95
2022-09-29T14:51:58.205Z,7.05
2022-09-29T14:54:39.456Z,6.80
2022-09-29T14:57:43.118Z,5.68
2022-09-29T15:00:17.848Z,6.80
2022-09-29T15:03:00.277Z,7.13
2022-09-29T15:05:37.428Z,6.72
2022-09-29T15:08:23.307Z,6.53
2022-09-29T15:10:49.640Z,7.03
2022-09-29T15:13:24.221Z,6.28
2022-09-29T15:15:57.371Z,5.70
2022-09-29T15:18:30.900Z,6.50
2022-09-29T15:21:06.708Z,6.90
2022-09-29T15:23:58.805Z,6.10
2022-09-29T15:26:30.202Z,6.38
2022-09-29T15:28:57.077Z,6.57
2022-09-29T15:31:29.266Z,6.57
2022-09-29T15:33:55.814Z,7.45
2022-09-29T15:36:26.882Z,8.52
2022-09-29T15:39:33.767Z,8.82
2022-09-29T15:42:02.411Z,9.45
2022-09-29T15:44:33.521Z,10.40
2022-09-29T15:47:00.653Z,9.85
2022-09-29T15:49:28.694Z,9.77
2022-09-29T15:52:07.473Z,11.75
2022-09-29T15:54:39.673Z,8.48
2022-09-29T15:57:24.903Z,8.95
2022-09-29T15:59:54.043Z,8.75
2022-09-29T16:02:36.527Z,11.05
2022-09-29T16:05:07.346Z,7.30
2022-09-29T16:07:38.264Z,7.28
2022-09-29T16:10:16.094Z,9.60
2022-09-29T16:12:53.557Z,10.73
2022-09-29T16:15:30.455Z,11.20
2022-09-29T16:18:22.144Z,13.80
2022-09-29T16:20:50.491Z,12.13
2022-09-29T16:23:22.068Z,9.88
2022-09-29T16:26:06.644Z,9.63
2022-09-29T16:28:36.116Z,13.68
2022-09-29T16:31:10.102Z,12.50
2022-09-29T16:33:44.005Z,11.88
2022-09-29T16:36:20.146Z,11.65
2022-09-29T16:38:51.391Z,9.95
2022-09-29T16:41:35.424Z,8.45
2022-09-29T16:44:10.584Z,11.27
2022-09-29T16:46:49.082Z,10.00
2022-09-29T16:49:27.645Z,9.57
2022-09-29T16:51:58.825Z,9.35
2022-09-29T16:54:31.059Z,7.70
2022-09-29T16:57:26.505Z,7.80
2022-09-29T16:59:55.612Z,8.35
2022-09-29T17:02:22.913Z,8.30
2022-09-29T17:04:53.690Z,8.52
2022-09-29T17:07:22.906Z,8.30
2022-09-29T17:09:56.030Z,7.78
2022-09-29T17:12:24.399Z,8.65
2022-09-29T17:14:51.014Z,8.32
2022-09-29T17:17:22.917Z,8.70
2022-09-29T17:19:50.537Z,8.35
2022-09-29T17:22:37.177Z,11.25
2022-09-29T17:25:04.714Z,9.48
2022-09-29T17:27:50.030Z,8.23
2022-09-29T17:30:23.220Z,8.23
2022-09-29T17:32:52.871Z,10.55
2022-09-29T17:35:21.189Z,11.98
2022-09-29T17:37:48.063Z,14.57
2022-09-29T17:40:28.861Z,15.52
2022-09-29T17:42:57.333Z,11.75
2022-09-29T17:45:24.700Z,11.52
2022-09-29T17:47:51.486Z,12.13
2022-09-29T17:50:23.910Z,11.05
2022-09-29T17:52:50.461Z,9.80
2022-09-29T17:55:16.916Z,10.40
2022-09-29T17:57:43.597Z,13.60
2022-09-29T18:00:15.890Z,10.63
2022-09-29T18:02:42.381Z,10.27
2022-09-29T18:05:10.760Z,10.68
2022-09-29T18:07:37.145Z,10.32
2022-09-29T18:10:15.306Z,9.93
2022-09-29T18:12:41.790Z,10.10
2022-09-29T18:15:10.352Z,11.80
2022-09-29T18:17:36.809Z,11.60
2022-09-29T18:20:21.958Z,11.13
2022-09-29T18:22:48.662Z,12.15
2022-09-29T18:25:17.666Z,13.15
2022-09-29T18:27:46.292Z,15.85
2022-09-29T18:30:26.845Z,12.95
2022-09-29T18:32:55.963Z,13.07
2022-09-29T18:35:24.881Z,12.93
2022-09-29T18:37:51.426Z,11.90
2022-09-29T18:40:18.651Z,12.23
2022-09-29T18:42:48.009Z,11.55
2022-09-29T18:45:23.110Z,11.75
2022-09-29T18:47:55.257Z,12.23
2022-09-29T18:50:25.318Z,11.18
2022-09-29T18:52:52.195Z,10.88
2022-09-29T18:55:23.063Z,12.02
2022-09-29T18:57:50.095Z,12.07
2022-09-29T19:00:19.681Z,12.43
2022-09-29T19:02:47.372Z,13.20
2022-09-29T19:05:23.498Z,14.15
2022-09-29T19:07:54.335Z,16.30
2022-09-29T19:10:20.737Z,14.77
2022-09-29T19:12:48.458Z,15.30
2022-09-29T19:15:17.012Z,16.50
2022-09-29T19:17:44.852Z,15.48
2022-09-29T19:20:16.426Z,15.27
2022-09-29T19:22:43.994Z,15.45
2022-09-29T19:25:18.108Z,15.88
2022-09-29T19:27:45.857Z,13.82
2022-09-29T19:30:15.239Z,15.80
2022-09-29T19:32:42.484Z,14.63
2022-09-29T19:35:12.361Z,15.38
2022-09-29T19:37:38.834Z,15.00
2022-09-29T19:40:08.843Z,14.85
2022-09-29T19:42:35.393Z,15.50
2022-09-29T19:45:05.256Z,16.55
2022-09-29T19:47:32.184Z,14.60
2022-09-29T19:50:17.119Z,16.13
2022-09-29T19:52:43.668Z,16.42
2022-09-29T19:55:12.758Z,17.38
2022-09-29T19:57:42.514Z,17.05
2022-09-29T20:00:11.434Z,17.42
2022-09-29T20:02:37.905Z,15.65
2022-09-29T20:05:05.800Z,15.77
2022-09-29T20:07:32.253Z,16.20
2022-09-29T20:09:58.591Z,15.82
2022-09-29T20:12:26.126Z,15.55
2022-09-29T20:14:52.453Z,14.50
2022-09-29T20:17:18.799Z,14.32
2022-09-29T20:19:47.152Z,14.05
2022-09-29T20:22:14.204Z,14.27
2022-09-29T20:24:40.607Z,14.77
2022-09-29T20:27:07.001Z,14.05
2022-09-29T20:29:34.098Z,15.95
2022-09-29T20:32:00.750Z,14.68
2022-09-29T20:34:27.086Z,14.35
2022-09-29T20:36:55.108Z,15.00
2022-09-29T20:39:22.230Z,16.77
2022-09-29T20:41:49.914Z,17.02
2022-09-29T20:44:19.792Z,15.85
2022-09-29T20:46:46.319Z,15.38
2022-09-29T20:49:12.717Z,14.90
2022-09-29T20:51:39.072Z,14.52
2022-09-29T20:54:05.462Z,14.15
2022-09-29T20:56:35.734Z,14.90
2022-09-29T20:59:02.583Z,13.07
2022-09-29T21:01:30.737Z,14.25
2022-09-29T21:04:03.900Z,14.50
2022-09-29T21:06:32.648Z,12.90
2022-09-29T21:08:59.944Z,12.82
2022-09-29T21:11:26.757Z,12.93
2022-09-29T21:13:56.818Z,13.93
2022-09-29T21:16:24.418Z,13.13
2022-09-29T21:18:53.920Z,13.65
2022-09-29T21:21:20.455Z,14.48
2022-09-29T21:23:46.793Z,14.80
2022-09-29T21:26:18.545Z,14.25
2022-09-29T21:28:53.249Z,14.75
2022-09-29T21:31:22.392Z,14.57
2022-09-29T21:33:56.635Z,15.50
2022-09-29T21:36:25.290Z,15.63
2022-09-29T21:38:52.338Z,15.75
2022-09-29T21:41:21.857Z,15.88
2022-09-29T21:43:50.955Z,17.42
2022-09-29T21:46:19.537Z,17.10
2022-09-29T21:48:46.789Z,16.92
2022-09-29T21:51:16.638Z,18.67
2022-09-29T21:53:44.359Z,18.63
2022-09-29T21:56:16.192Z,18.05
2022-09-29T21:58:43.388Z,14.75
2022-09-29T22:01:11.468Z,16.20
2022-09-29T22:03:42.228Z,15.27
2022-09-29T22:06:14.458Z,16.17
2022-09-29T22:08:40.993Z,16.77
2022-09-29T22:11:08.046Z,17.95
2022-09-29T22:13:37.782Z,16.83
2022-09-29T22:16:07.301Z,14.30
2022-09-29T22:18:41.735Z,15.07
2022-09-29T22:21:14.819Z,14.60
2022-09-29T22:23:41.170Z,13.70
2022-09-29T22:26:13.986Z,12.88
2022-09-29T22:28:43.884Z,14.18
2022-09-29T22:31:11.997Z,15.75
2022-09-29T22:33:42.246Z,15.85
2022-09-29T22:36:09.177Z,15.43
2022-09-29T22:38:36.911Z,16.63
2022-09-29T22:41:15.202Z,16.20
2022-09-29T22:43:41.721Z,14.15
2022-09-29T22:46:08.728Z,12.85
2022-09-29T22:48:35.804Z,14.52
2022-09-29T22:51:02.354Z,18.05
2022-09-29T22:53:28.737Z,17.95
2022-09-29T22:55:55.322Z,16.95
2022-09-29T22:58:24.758Z,17.85
2022-09-29T23:01:02.986Z,16.65
2022-09-29T23:03:29.819Z,15.32
2022-09-29T23:06:00.036Z,17.40
2022-09-29T23:08:26.825Z,17.55
2022-09-29T23:10:55.781Z,17.58
2022-09-29T23:13:23.531Z,16.35
2022-09-29T23:15:50.268Z,16.70
2022-09-29T23:18:17.739Z,16.98
2022-09-29T23:20:44.737Z,17.88
2022-09-29T23:23:11.946Z,16.15
2022-09-29T23:25:38.657Z,16.17
2022-09-29T23:28:05.933Z,16.45
2022-09-29T23:30:36.152Z,17.05
2022-09-29T23:33:02.796Z,15.65
2022-09-29T23:35:29.113Z,17.52
2022-09-29T23:38:14.120Z,16.30
2022-09-29T23:40:41.611Z,15.40
2022-09-29T23:43:07.939Z,15.73
2022-09-29T23:45:34.544Z,15.13
2022-09-29T23:48:01.125Z,16.88
2022-09-29T23:50:30.232Z,18.00
2022-09-29T23:52:56.534Z,17.73
2022-09-29T23:55:22.898Z,19.25
2022-09-29T23:57:49.211Z,19.90
